createdAt,value
2017-10-19T00:02:27.817Z,458.97
2017-10-19T00:04:55.393Z,496.35
2017-10-19T00:07:23.861Z,493.87
2017-10-19T00:09:51.434Z,563.83
2017-10-19T00:12:19.800Z,518.73
2017-10-19T00:14:48.844Z,440.10
2017-10-19T00:17:16.560Z,477.23
2017-10-19T00:19:46.565Z,451.33
2017-10-19T00:22:14.140Z,513.73
2017-10-19T00:24:41.736Z,543.37
2017-10-19T00:27:09.318Z,410.77
2017-10-19T00:29:37.012Z,407.80
2017-10-19T00:32:04.580Z,432.55
2017-10-19T00:34:32.177Z,364.70
2017-10-19T00:36:59.758Z,404.10
2017-10-19T00:39:27.356Z,384.20
2017-10-19T00:41:55.028Z,450.70
2017-10-19T00:44:22.599Z,429.77
2017-10-19T00:46:50.960Z,423.33
2017-10-19T00:49:18.531Z,425.07
2017-10-19T00:51:47.937Z,423.77
2017-10-19T00:54:15.508Z,390.70
2017-10-19T00:56:43.873Z,337.87
2017-10-19T00:59:11.540Z,351.37
2017-10-19T01:01:39.141Z,367.17
2017-10-19T01:04:06.714Z,345.63
2017-10-19T01:06:34.304Z,412.50
2017-10-19T01:09:01.872Z,365.43
2017-10-19T01:11:29.484Z,264.43
2017-10-19T01:13:57.264Z,370.73
2017-10-19T01:16:25.338Z,336.08
2017-10-19T01:18:53.204Z,341.30
2017-10-19T01:21:21.195Z,342.97
2017-10-19T01:23:49.878Z,461.70
2017-10-19T01:26:17.594Z,456.87
2017-10-19T01:28:46.868Z,430.57
2017-10-19T01:31:15.204Z,437.83
2017-10-19T01:33:42.908Z,406.23
2017-10-19T01:36:10.504Z,473.00
2017-10-19T01:38:38.085Z,445.10
2017-10-19T01:41:05.684Z,445.77
2017-10-19T01:43:33.261Z,387.50
2017-10-19T01:46:01.649Z,313.67
2017-10-19T01:48:30.001Z,317.00
2017-10-19T01:50:57.576Z,243.57
2017-10-19T01:53:25.201Z,247.27
2017-10-19T01:55:52.900Z,309.83
2017-10-19T01:58:20.468Z,295.37
2017-10-19T02:00:48.832Z,194.40
2017-10-19T02:03:16.400Z,277.27
2017-10-19T02:05:43.988Z,282.70
2017-10-19T02:08:12.316Z,305.93
2017-10-19T02:10:39.909Z,172.20
2017-10-19T02:13:08.253Z,336.10
2017-10-19T02:15:35.844Z,248.80
2017-10-19T02:18:04.184Z,265.25
2017-10-19T02:20:31.776Z,274.55
2017-10-19T02:22:59.344Z,228.40
2017-10-19T02:25:27.239Z,373.30
2017-10-19T02:27:55.500Z,278.40
2017-10-19T02:30:24.137Z,139.27
2017-10-19T02:32:51.741Z,196.73
2017-10-19T02:35:20.074Z,162.73
2017-10-19T02:37:49.772Z,151.47
2017-10-19T02:40:18.793Z,125.50
2017-10-19T02:42:48.913Z,355.05
2017-10-19T02:45:16.490Z,310.57
2017-10-19T02:47:44.092Z,358.47
2017-10-19T02:50:11.656Z,335.27
2017-10-19T02:52:39.387Z,279.03
2017-10-19T02:55:07.044Z,230.85
2017-10-19T02:57:34.705Z,151.00
2017-10-19T03:00:02.304Z,129.83
2017-10-19T03:02:29.872Z,166.60
2017-10-19T03:04:57.469Z,136.20
2017-10-19T03:07:25.036Z,165.80
2017-10-19T03:09:52.629Z,152.65
2017-10-19T03:12:20.982Z,123.13
2017-10-19T03:14:48.864Z,152.87
2017-10-19T03:17:17.200Z,131.07
2017-10-19T03:19:45.205Z,183.60
2017-10-19T03:22:12.769Z,179.45
2017-10-19T03:24:40.344Z,117.67
2017-10-19T03:27:09.953Z,99.47
2017-10-19T03:29:38.313Z,80.07
2017-10-19T03:32:05.904Z,87.47
2017-10-19T03:34:33.473Z,84.17
2017-10-19T03:37:01.072Z,100.03
2017-10-19T03:39:28.645Z,111.73
2017-10-19T03:41:56.704Z,86.13
2017-10-19T03:44:24.269Z,95.23
2017-10-19T03:46:52.545Z,95.47
2017-10-19T03:49:20.709Z,102.47
2017-10-19T03:51:51.208Z,101.72
2017-10-19T03:54:18.796Z,116.60
2017-10-19T03:56:48.652Z,107.12
2017-10-19T03:59:17.084Z,105.00
2017-10-19T04:01:44.671Z,115.13
2017-10-19T04:04:12.890Z,95.17
2017-10-19T04:06:40.500Z,92.33
2017-10-19T04:09:08.072Z,102.90
2017-10-19T04:11:35.640Z,93.63
2017-10-19T04:14:04.736Z,93.28
2017-10-19T04:16:32.304Z,91.77
2017-10-19T04:19:00.829Z,91.68
2017-10-19T04:21:28.396Z,82.90
2017-10-19T04:23:55.966Z,80.55
2017-10-19T04:26:23.553Z,95.10
2017-10-19T04:28:51.125Z,104.17
2017-10-19T04:31:18.719Z,99.40
2017-10-19T04:33:47.754Z,98.82
2017-10-19T04:36:15.351Z,95.33
2017-10-19T04:38:43.700Z,105.20
2017-10-19T04:41:11.295Z,84.50
2017-10-19T04:43:39.625Z,94.35
2017-10-19T04:46:07.220Z,288.97
2017-10-19T04:48:34.797Z,294.55
2017-10-19T04:51:03.472Z,253.30
2017-10-19T04:53:31.807Z,169.07
2017-10-19T04:55:59.376Z,98.67
2017-10-19T04:58:26.972Z,114.43
2017-10-19T05:00:54.540Z,134.77
2017-10-19T05:03:22.892Z,121.37
2017-10-19T05:05:50.468Z,128.77
2017-10-19T05:08:18.064Z,102.87
2017-10-19T05:10:47.812Z,117.53
2017-10-19T05:13:15.428Z,151.37
2017-10-19T05:15:43.760Z,129.93
2017-10-19T05:18:11.444Z,105.77
2017-10-19T05:20:39.011Z,137.70
2017-10-19T05:23:06.868Z,126.57
2017-10-19T05:25:35.948Z,142.87
2017-10-19T05:28:03.534Z,213.30
2017-10-19T05:30:31.120Z,179.10
2017-10-19T05:32:58.690Z,192.10
2017-10-19T05:35:26.279Z,184.23
2017-10-19T05:37:53.849Z,160.20
2017-10-19T05:40:21.439Z,158.20
2017-10-19T05:42:48.999Z,142.97
2017-10-19T05:45:17.369Z,131.93
2017-10-19T05:47:47.668Z,190.43
2017-10-19T05:50:15.356Z,159.50
2017-10-19T05:52:43.693Z,140.63
2017-10-19T05:55:11.284Z,122.27
2017-10-19T05:57:38.852Z,155.83
2017-10-19T06:00:06.515Z,97.40
2017-10-19T06:02:34.118Z,97.37
2017-10-19T06:05:01.708Z,84.00
2017-10-19T06:07:29.268Z,91.13
2017-10-19T06:09:57.277Z,68.65
2017-10-19T06:12:25.661Z,90.20
2017-10-19T06:14:53.997Z,54.83
2017-10-19T06:17:33.584Z,64.07
2017-10-19T06:20:01.231Z,54.03
2017-10-19T06:22:28.824Z,45.97
2017-10-19T06:24:57.173Z,50.67
2017-10-19T06:27:24.760Z,59.70
2017-10-19T06:29:53.095Z,82.55
2017-10-19T06:32:20.693Z,141.23
2017-10-19T06:34:49.651Z,193.40
2017-10-19T06:37:17.435Z,106.87
2017-10-19T06:39:45.937Z,77.50
2017-10-19T06:42:14.281Z,78.10
2017-10-19T06:44:42.144Z,58.47
2017-10-19T06:47:09.829Z,63.00
2017-10-19T06:49:37.404Z,51.03
2017-10-19T06:52:05.769Z,56.67
2017-10-19T06:54:33.344Z,47.13
2017-10-19T06:57:01.706Z,52.13
2017-10-19T06:59:30.045Z,44.43
2017-10-19T07:01:57.636Z,51.67
2017-10-19T07:04:25.204Z,45.67
2017-10-19T07:06:52.875Z,47.64
2017-10-19T07:09:20.537Z,51.13
2017-10-19T07:11:49.524Z,51.00
2017-10-19T07:14:17.192Z,48.87
2017-10-19T07:16:46.691Z,40.77
2017-10-19T07:19:14.357Z,45.23
2017-10-19T07:21:43.456Z,41.93
2017-10-19T07:24:13.311Z,42.03
2017-10-19T07:26:40.884Z,42.47
2017-10-19T07:29:08.480Z,39.30
2017-10-19T07:31:36.152Z,33.00
2017-10-19T07:34:03.745Z,34.27
2017-10-19T07:36:31.316Z,35.10
2017-10-19T07:38:58.916Z,34.40
2017-10-19T07:41:26.484Z,30.33
2017-10-19T07:43:54.260Z,30.77
2017-10-19T07:46:23.352Z,33.40
2017-10-19T07:48:52.431Z,32.30
2017-10-19T07:51:20.025Z,36.63
2017-10-19T07:53:49.504Z,37.37
2017-10-19T07:56:17.100Z,31.00
2017-10-19T07:58:46.359Z,33.60
2017-10-19T08:01:14.071Z,57.10
2017-10-19T08:03:42.425Z,37.90
2017-10-19T08:06:10.008Z,36.00
2017-10-19T08:08:38.461Z,35.17
2017-10-19T08:11:06.128Z,35.13
2017-10-19T08:13:33.728Z,37.33
2017-10-19T08:16:01.296Z,31.63
2017-10-19T08:18:29.657Z,34.20
2017-10-19T08:20:57.992Z,37.25
2017-10-19T08:23:25.673Z,38.33
2017-10-19T08:25:54.025Z,36.33
2017-10-19T08:28:21.996Z,34.47
2017-10-19T08:30:49.569Z,31.80
2017-10-19T08:33:17.288Z,38.97
2017-10-19T08:35:45.780Z,36.17
2017-10-19T08:38:13.352Z,28.63
2017-10-19T08:40:40.948Z,33.30
2017-10-19T08:43:08.613Z,26.13
2017-10-19T08:45:36.209Z,30.23
2017-10-19T08:48:03.829Z,34.87
2017-10-19T08:50:31.424Z,43.80
2017-10-19T08:52:58.996Z,38.25
2017-10-19T08:55:26.592Z,34.10
2017-10-19T08:57:54.164Z,31.70
2017-10-19T09:00:22.248Z,29.90
2017-10-19T09:02:49.829Z,29.13
2017-10-19T09:05:18.167Z,29.60
2017-10-19T09:07:47.793Z,33.50
2017-10-19T09:10:15.355Z,24.20
2017-10-19T09:12:42.953Z,25.60
2017-10-19T09:15:10.525Z,25.00
2017-10-19T09:17:38.119Z,28.90
2017-10-19T09:20:05.704Z,26.02
2017-10-19T09:22:33.464Z,26.47
2017-10-19T09:25:01.044Z,26.57
2017-10-19T09:27:29.380Z,23.93
2017-10-19T09:29:56.973Z,24.67
2017-10-19T09:32:24.539Z,25.80
2017-10-19T09:34:52.892Z,21.05
2017-10-19T09:37:20.459Z,22.33
2017-10-19T09:39:49.561Z,17.80
2017-10-19T09:42:17.132Z,22.43
2017-10-19T09:44:46.417Z,21.40
2017-10-19T09:47:13.996Z,16.90
2017-10-19T09:49:42.366Z,22.80
2017-10-19T09:52:10.029Z,23.00
2017-10-19T09:54:37.688Z,21.23
2017-10-19T09:57:05.344Z,24.08
2017-10-19T09:59:32.931Z,22.07
2017-10-19T10:02:01.293Z,21.63
2017-10-19T10:04:30.080Z,21.53
2017-10-19T10:06:58.432Z,22.87
2017-10-19T10:09:26.021Z,22.97
2017-10-19T10:11:54.405Z,27.54
2017-10-19T10:14:21.984Z,18.20
2017-10-19T10:16:49.586Z,15.20
2017-10-19T10:19:18.000Z,19.47
2017-10-19T10:21:46.883Z,17.52
2017-10-19T10:24:14.456Z,15.10
2017-10-19T10:26:42.217Z,17.37
2017-10-19T10:29:09.797Z,15.90
2017-10-19T10:31:38.157Z,16.00
2017-10-19T10:34:05.749Z,16.70
2017-10-19T10:36:33.316Z,14.27
2017-10-19T10:39:00.908Z,15.73
2017-10-19T10:41:28.480Z,14.40
2017-10-19T10:43:56.340Z,14.20
2017-10-19T10:46:23.929Z,18.73
2017-10-19T10:48:51.516Z,14.77
2017-10-19T10:51:19.149Z,12.07
2017-10-19T10:53:48.620Z,12.40
2017-10-19T10:56:16.320Z,12.45
2017-10-19T10:58:43.897Z,10.75
2017-10-19T11:01:12.256Z,10.88
2017-10-19T11:03:39.825Z,11.02
2017-10-19T11:06:07.411Z,11.50
2017-10-19T11:08:34.975Z,15.43
2017-10-19T11:11:02.603Z,8.57
2017-10-19T11:13:30.177Z,8.85
2017-10-19T11:15:58.548Z,9.43
2017-10-19T11:18:26.916Z,9.55
2017-10-19T11:20:54.480Z,10.30
2017-10-19T11:23:22.077Z,10.57
2017-10-19T11:25:49.640Z,12.53
2017-10-19T11:28:17.361Z,9.03
2017-10-19T11:30:46.660Z,9.63
2017-10-19T11:33:14.224Z,8.50
2017-10-19T11:35:41.888Z,8.97
2017-10-19T11:38:09.461Z,13.33
2017-10-19T11:40:37.836Z,6.90
2017-10-19T11:43:06.185Z,8.73
2017-10-19T11:45:33.776Z,11.30
2017-10-19T11:48:01.432Z,11.35
2017-10-19T11:50:29.792Z,10.63
2017-10-19T11:52:57.359Z,9.95
2017-10-19T11:55:25.028Z,12.93
2017-10-19T11:57:52.700Z,8.60
2017-10-19T12:00:20.296Z,11.37
2017-10-19T12:02:49.524Z,11.55
2017-10-19T12:05:17.319Z,9.93
2017-10-19T12:07:46.581Z,13.00
2017-10-19T12:10:14.144Z,9.43
2017-10-19T12:12:41.732Z,7.30
2017-10-19T12:15:09.517Z,8.00
2017-10-19T12:17:37.848Z,7.27
2017-10-19T12:20:05.413Z,6.40
2017-10-19T12:22:33.108Z,7.90
2017-10-19T12:25:00.674Z,8.13
2017-10-19T12:27:28.266Z,6.17
2017-10-19T12:29:55.892Z,7.63
2017-10-19T12:32:23.476Z,6.80
2017-10-19T12:34:51.800Z,8.70
2017-10-19T12:37:19.497Z,9.30
2017-10-19T12:39:49.613Z,13.90
2017-10-19T12:42:17.380Z,8.20
2017-10-19T12:44:45.960Z,9.23
2017-10-19T12:47:13.520Z,11.07
2017-10-19T12:49:41.200Z,7.97
2017-10-19T12:52:09.537Z,12.10
2017-10-19T12:54:37.228Z,8.40
2017-10-19T12:57:04.892Z,6.33
2017-10-19T12:59:32.480Z,5.70
2017-10-19T13:02:00.833Z,8.35
2017-10-19T13:04:28.492Z,8.73
2017-10-19T13:06:56.166Z,5.72
2017-10-19T13:09:24.536Z,6.00
2017-10-19T13:11:52.096Z,9.13
2017-10-19T13:14:19.660Z,12.10
2017-10-19T13:16:49.572Z,8.83
2017-10-19T13:19:18.666Z,8.70
2017-10-19T13:21:48.017Z,9.45
2017-10-19T13:24:15.578Z,8.40
2017-10-19T13:26:43.145Z,10.13
2017-10-19T13:29:10.729Z,8.30
2017-10-19T13:31:38.412Z,7.93
2017-10-19T13:34:06.000Z,9.47
2017-10-19T13:36:34.327Z,8.87
2017-10-19T13:39:01.925Z,14.53
2017-10-19T13:41:29.577Z,8.80
2017-10-19T13:43:57.933Z,6.63
2017-10-19T13:46:25.508Z,8.33
2017-10-19T13:48:53.099Z,7.20
2017-10-19T13:51:21.432Z,6.27
2017-10-19T13:53:49.181Z,4.70
2017-10-19T13:56:16.782Z,4.47
2017-10-19T13:58:44.344Z,6.73
2017-10-19T14:01:11.936Z,6.03
2017-10-19T14:03:39.572Z,5.97
2017-10-19T14:06:07.932Z,10.10
2017-10-19T14:08:35.500Z,8.47
2017-10-19T14:11:03.092Z,7.45
2017-10-19T14:13:31.446Z,9.50
2017-10-19T14:15:59.796Z,6.90
2017-10-19T14:18:27.386Z,12.00
2017-10-19T14:20:55.769Z,9.80
2017-10-19T14:23:23.420Z,7.80
2017-10-19T14:25:51.008Z,9.73
2017-10-19T14:28:19.340Z,9.83
2017-10-19T14:30:47.983Z,9.05
2017-10-19T14:33:15.544Z,5.00
2017-10-19T14:35:43.280Z,7.03
2017-10-19T14:38:10.853Z,8.10
2017-10-19T14:40:39.196Z,6.30
2017-10-19T14:43:06.791Z,12.43
2017-10-19T14:45:35.119Z,10.57
2017-10-19T14:48:03.051Z,6.73
2017-10-19T14:50:31.385Z,12.43
2017-10-19T14:52:58.972Z,8.00
2017-10-19T14:55:26.620Z,7.20
2017-10-19T14:57:54.488Z,7.75
2017-10-19T15:00:22.813Z,8.57
2017-10-19T15:02:50.436Z,12.00
2017-10-19T15:05:18.909Z,12.70
2017-10-19T15:07:48.696Z,11.17
2017-10-19T15:10:16.280Z,9.50
2017-10-19T15:12:43.844Z,13.77
2017-10-19T15:15:11.517Z,14.07
2017-10-19T15:17:39.785Z,12.10
2017-10-19T15:20:08.172Z,17.50
2017-10-19T15:22:35.744Z,11.50
2017-10-19T15:25:04.099Z,12.80
2017-10-19T15:27:31.664Z,14.97
2017-10-19T15:29:59.253Z,16.60
2017-10-19T15:32:27.604Z,10.37
2017-10-19T15:34:55.196Z,14.70
2017-10-19T15:37:23.542Z,16.73
2017-10-19T15:39:51.925Z,11.70
2017-10-19T15:42:19.487Z,20.57
2017-10-19T15:44:48.688Z,9.23
2017-10-19T15:47:16.348Z,11.20
2017-10-19T15:49:43.936Z,14.23
2017-10-19T15:52:12.284Z,18.13
2017-10-19T15:54:39.948Z,15.80
2017-10-19T15:57:07.510Z,11.20
2017-10-19T15:59:35.101Z,11.50
2017-10-19T16:02:02.669Z,14.47
2017-10-19T16:04:30.266Z,15.37
2017-10-19T16:06:57.831Z,10.90
2017-10-19T16:09:25.420Z,16.37
2017-10-19T16:11:53.004Z,15.50
2017-10-19T16:14:20.576Z,12.10
2017-10-19T16:16:49.628Z,16.13
2017-10-19T16:19:17.192Z,13.80
2017-10-19T16:21:44.785Z,23.53
2017-10-19T16:24:12.349Z,15.37
2017-10-19T16:26:39.969Z,17.10
2017-10-19T16:29:07.531Z,17.70
2017-10-19T16:31:35.400Z,19.43
2017-10-19T16:34:02.984Z,16.45
2017-10-19T16:36:31.344Z,17.73
2017-10-19T16:38:59.000Z,19.67
2017-10-19T16:41:26.661Z,12.83
2017-10-19T16:43:54.324Z,14.35
2017-10-19T16:46:21.888Z,12.80
2017-10-19T16:48:49.556Z,11.63
2017-10-19T16:51:18.628Z,15.87
2017-10-19T16:53:47.208Z,14.30
2017-10-19T16:56:14.793Z,14.27
2017-10-19T16:58:42.451Z,14.23
2017-10-19T17:01:10.021Z,12.30
2017-10-19T17:03:38.503Z,14.33
2017-10-19T17:06:06.166Z,12.82
2017-10-19T17:08:34.165Z,11.90
2017-10-19T17:11:01.752Z,13.10
2017-10-19T17:13:29.316Z,8.00
2017-10-19T17:15:56.903Z,11.77
2017-10-19T17:18:24.468Z,10.37
2017-10-19T17:20:52.056Z,9.13
2017-10-19T17:23:20.391Z,11.13
2017-10-19T17:25:49.307Z,11.77
2017-10-19T17:28:17.637Z,9.25
2017-10-19T17:30:46.676Z,13.10
2017-10-19T17:33:14.272Z,9.53
2017-10-19T17:35:41.841Z,11.93
2017-10-19T17:38:09.658Z,9.83
2017-10-19T17:40:37.325Z,10.57
2017-10-19T17:43:04.888Z,9.80
2017-10-19T17:45:34.016Z,7.80
2017-10-19T17:48:01.592Z,12.30
2017-10-19T17:50:29.161Z,13.13
2017-10-19T17:52:56.748Z,12.20
2017-10-19T17:55:24.324Z,8.97
2017-10-19T17:57:51.919Z,10.82
2017-10-19T18:00:19.477Z,9.30
2017-10-19T18:02:48.164Z,15.43
2017-10-19T18:05:15.765Z,9.37
2017-10-19T18:07:43.331Z,10.33
2017-10-19T18:10:10.923Z,14.73
2017-10-19T18:12:38.500Z,13.33
2017-10-19T18:15:06.861Z,11.10
2017-10-19T18:17:34.424Z,12.97
2017-10-19T18:20:02.264Z,11.07
2017-10-19T18:22:29.840Z,24.03
2017-10-19T18:24:57.512Z,9.75
2017-10-19T18:27:25.085Z,12.63
2017-10-19T18:29:53.547Z,12.07
2017-10-19T18:32:21.112Z,11.13
2017-10-19T18:34:49.575Z,9.10
2017-10-19T18:37:17.140Z,11.27
2017-10-19T18:39:45.117Z,19.57
2017-10-19T18:42:12.676Z,5.80
2017-10-19T18:44:40.344Z,8.33
2017-10-19T18:47:07.936Z,12.83
2017-10-19T18:49:35.565Z,13.37
2017-10-19T18:52:03.224Z,15.53
2017-10-19T18:54:30.791Z,20.50
2017-10-19T18:56:58.385Z,16.57
2017-10-19T18:59:25.961Z,15.73
2017-10-19T19:01:53.579Z,18.73
2017-10-19T19:04:21.949Z,16.00
2017-10-19T19:06:49.716Z,17.33
2017-10-19T19:09:17.384Z,22.17
2017-10-19T19:11:45.880Z,24.60
2017-10-19T19:14:14.340Z,24.03
2017-10-19T19:16:41.999Z,17.70
2017-10-19T19:19:09.594Z,17.27
2017-10-19T19:21:37.928Z,20.00
2017-10-19T19:24:05.612Z,18.37
2017-10-19T19:26:34.684Z,17.33
2017-10-19T19:29:02.369Z,16.62
2017-10-19T19:31:30.700Z,16.20
2017-10-19T19:33:58.621Z,16.20
2017-10-19T19:36:26.960Z,13.70
2017-10-19T19:38:54.552Z,13.43
2017-10-19T19:41:22.212Z,11.70
2017-10-19T19:43:49.789Z,14.33
2017-10-19T19:46:18.144Z,20.83
2017-10-19T19:48:47.645Z,13.70
2017-10-19T19:51:15.244Z,17.93
2017-10-19T19:53:43.581Z,16.60
2017-10-19T19:56:11.269Z,13.30
2017-10-19T19:58:38.836Z,18.02
2017-10-19T20:01:07.201Z,15.38
2017-10-19T20:03:34.865Z,13.53
2017-10-19T20:06:02.533Z,18.57
2017-10-19T20:08:30.123Z,15.70
2017-10-19T20:10:57.684Z,14.68
2017-10-19T20:13:25.600Z,14.30
2017-10-19T20:15:53.168Z,18.80
2017-10-19T20:18:20.851Z,10.47
2017-10-19T20:20:49.595Z,20.87
2017-10-19T20:23:17.189Z,29.37
2017-10-19T20:25:44.756Z,19.70
2017-10-19T20:28:13.332Z,18.20
2017-10-19T20:30:40.900Z,18.93
2017-10-19T20:33:08.474Z,34.10
2017-10-19T20:35:36.841Z,16.70
2017-10-19T20:38:05.916Z,28.13
2017-10-19T20:40:33.510Z,18.87
2017-10-19T20:43:01.845Z,26.30
2017-10-19T20:45:29.438Z,18.60
2017-10-19T20:47:57.000Z,16.40
2017-10-19T20:50:26.120Z,16.93
2017-10-19T20:52:53.697Z,19.90
2017-10-19T20:55:21.277Z,22.00
2017-10-19T20:57:49.704Z,22.43
2017-10-19T21:00:18.039Z,27.30
2017-10-19T21:02:47.684Z,22.50
2017-10-19T21:05:15.317Z,26.13
2017-10-19T21:07:42.913Z,25.93
2017-10-19T21:10:11.249Z,23.47
2017-10-19T21:12:38.849Z,24.85
2017-10-19T21:15:06.425Z,22.93
2017-10-19T21:17:34.973Z,21.70
2017-10-19T21:20:02.549Z,19.27
2017-10-19T21:22:30.120Z,19.53
2017-10-19T21:24:58.484Z,20.90
2017-10-19T21:27:26.144Z,21.07
2017-10-19T21:29:53.740Z,22.57
2017-10-19T21:32:22.068Z,21.30
2017-10-19T21:34:49.664Z,27.00
2017-10-19T21:37:18.029Z,21.67
2017-10-19T21:39:47.061Z,21.35
2017-10-19T21:42:14.638Z,20.70
2017-10-19T21:44:42.348Z,25.87
2017-10-19T21:47:09.920Z,22.07
2017-10-19T21:49:38.576Z,22.33
2017-10-19T21:52:06.173Z,19.27
2017-10-19T21:54:34.521Z,22.75
2017-10-19T21:57:02.124Z,20.30
2017-10-19T21:59:30.476Z,23.17
2017-10-19T22:01:58.136Z,22.33
2017-10-19T22:04:25.700Z,18.83
2017-10-19T22:06:53.361Z,21.10
2017-10-19T22:09:20.933Z,22.73
2017-10-19T22:11:49.704Z,22.25
2017-10-19T22:14:18.041Z,22.23
2017-10-19T22:16:47.804Z,21.70
2017-10-19T22:19:16.143Z,21.70
2017-10-19T22:21:43.745Z,20.37
2017-10-19T22:24:11.584Z,22.93
2017-10-19T22:26:39.176Z,21.87
2017-10-19T22:29:07.521Z,23.30
2017-10-19T22:31:35.120Z,21.53
2017-10-19T22:34:03.457Z,21.70
2017-10-19T22:36:31.244Z,17.33
2017-10-19T22:38:59.582Z,22.00
2017-10-19T22:41:27.151Z,21.93
2017-10-19T22:43:54.740Z,20.97
2017-10-19T22:46:22.308Z,19.60
2017-10-19T22:48:49.901Z,23.57
2017-10-19T22:51:18.240Z,24.83
2017-10-19T22:53:46.013Z,20.52
2017-10-19T22:56:13.575Z,19.57
2017-10-19T22:58:41.445Z,24.03
2017-10-19T23:01:09.028Z,24.70
2017-10-19T23:03:37.667Z,22.60
2017-10-19T23:06:05.261Z,22.20
2017-10-19T23:08:33.605Z,24.73
2017-10-19T23:11:01.478Z,22.02
2017-10-19T23:13:29.053Z,29.30
2017-10-19T23:15:56.647Z,20.30
2017-10-19T23:18:24.983Z,20.10
2017-10-19T23:20:52.577Z,20.25
2017-10-19T23:23:20.913Z,18.60
2017-10-19T23:25:48.837Z,18.62
2017-10-19T23:28:16.468Z,18.87
2017-10-19T23:30:46.501Z,20.33
2017-10-19T23:33:14.833Z,21.27
2017-10-19T23:35:42.732Z,20.13
2017-10-19T23:38:11.069Z,17.67
2017-10-19T23:40:38.635Z,28.83
2017-10-19T23:43:06.337Z,21.03
2017-10-19T23:45:33.908Z,19.10
2017-10-19T23:48:02.372Z,25.13
2017-10-19T23:50:29.941Z,30.00
2017-10-19T23:52:58.095Z,24.80
2017-10-19T23:55:25.661Z,18.10
2017-10-19T23:57:53.228Z,18.28
